Time;durP1;ratioP1;P1;durP2;ratioP2;P2;SDS_P1;SDS_P2;PMS_P1;PMS_P2;Temp;Humidity;BMP_temperature;BMP_pressure;BME280_temperature;BME280_humidity;BME280_pressure;Samples;Min_cycle;Max_cycle;Signal;HPM_P1;HPM_P2
2023/09/02 00:00:45;;;;;;;2.15;1.45;;;;;;;;;;5960236;28;20041;-74
2023/09/02 00:03:36;;;;;;;3.20;2.70;;;;;;;;;;5949387;27;20046;-74
2023/09/02 00:06:26;;;;;;;4.43;2.33;;;;;;;;;;5960994;28;20112;-74
2023/09/02 00:09:17;;;;;;;7.57;2.28;;;;;;;;;;5960842;28;20044;-74
2023/09/02 00:12:08;;;;;;;2.00;1.90;;;;;;;;;;5960602;28;20048;-73
2023/09/02 00:14:59;;;;;;;3.28;1.45;;;;;;;;;;5961335;28;20039;-76
2023/09/02 00:17:50;;;;;;;4.32;1.67;;;;;;;;;;5961023;28;20204;-74
2023/09/02 00:20:40;;;;;;;2.17;1.98;;;;;;;;;;5960661;28;20035;-75
2023/09/02 00:23:34;;;;;;;1.88;1.60;;;;;;;;;;5960577;28;20047;-74
2023/09/02 00:26:24;;;;;;;4.15;2.17;;;;;;;;;;5960522;28;20127;-76
2023/09/02 00:29:15;;;;;;;1.52;1.20;;;;;;;;;;5958334;28;20035;-73
2023/09/02 00:32:06;;;;;;;3.20;1.80;;;;;;;;;;5936595;28;20178;-75
2023/09/02 00:34:57;;;;;;;2.22;1.73;;;;;;;;;;5957952;28;20122;-74
2023/09/02 00:37:48;;;;;;;2.03;1.75;;;;;;;;;;5960197;28;20043;-73
2023/09/02 00:40:45;;;;;;;2.90;1.70;;;;;;;;;;5959362;28;20032;-72
2023/09/02 00:43:36;;;;;;;3.13;2.13;;;;;;;;;;5942137;28;20062;-75
2023/09/02 00:46:27;;;;;;;4.85;2.55;;;;;;;;;;5941763;28;20047;-75
2023/09/02 00:49:18;;;;;;;1.80;1.23;;;;;;;;;;5941880;28;20054;-75
2023/09/02 00:52:09;;;;;;;2.90;1.42;;;;;;;;;;5941892;28;20044;-75
2023/09/02 00:55:01;;;;;;;1.88;1.35;;;;;;;;;;5960260;28;20051;-73
2023/09/02 00:57:52;;;;;;;1.83;1.40;;;;;;;;;;5941982;28;20189;-74
2023/09/02 01:00:45;;;;;;;1.25;0.75;;;;;;;;;;5959616;28;20045;-75
2023/09/02 01:03:37;;;;;;;1.42;1.33;;;;;;;;;;5959346;28;20036;-73
2023/09/02 01:06:28;;;;;;;3.80;1.88;;;;;;;;;;5959302;28;20116;-75
2023/09/02 01:09:19;;;;;;;4.00;1.88;;;;;;;;;;5959599;28;20466;-74
2023/09/02 01:12:10;;;;;;;4.63;2.67;;;;;;;;;;5955588;28;20052;-72
2023/09/02 01:15:03;;;;;;;3.10;1.90;;;;;;;;;;5937581;28;20058;-73
2023/09/02 01:17:54;;;;;;;3.13;1.73;;;;;;;;;;5959657;28;20410;-73
2023/09/02 01:21:14;;;;;;;1.15;1.05;;;;;;;;;;5940910;28;20169;-72
2023/09/02 01:24:47;;;;;;;5.30;2.20;;;;;;;;;;5950713;28;20042;-73
2023/09/02 01:27:54;;;;;;;1.85;1.60;;;;;;;;;;5943621;28;20039;-73
2023/09/02 01:30:48;;;;;;;8.13;1.92;;;;;;;;;;5958983;28;20039;-74
2023/09/02 01:33:40;;;;;;;3.90;2.30;;;;;;;;;;5940795;28;20047;-74
2023/09/02 01:36:33;;;;;;;6.60;2.72;;;;;;;;;;5940640;28;20054;-75
2023/09/02 01:39:25;;;;;;;2.15;1.60;;;;;;;;;;5941133;28;20483;-75
2023/09/02 01:42:17;;;;;;;5.43;2.55;;;;;;;;;;5940674;28;20478;-72
2023/09/02 01:45:10;;;;;;;8.20;2.55;;;;;;;;;;5940682;28;20043;-72
2023/09/02 01:48:02;;;;;;;3.58;1.52;;;;;;;;;;5940550;28;20044;-75
2023/09/02 01:50:54;;;;;;;2.42;1.80;;;;;;;;;;5940536;28;20040;-75
2023/09/02 01:53:44;;;;;;;1.95;1.13;;;;;;;;;;5957823;28;20044;-74
2023/09/02 01:56:37;;;;;;;2.33;1.90;;;;;;;;;;5958258;28;20039;-74
2023/09/02 01:59:27;;;;;;;4.35;1.52;;;;;;;;;;5940546;28;20036;-75
2023/09/02 02:02:18;;;;;;;19.27;3.20;;;;;;;;;;5958367;28;20398;-73
2023/09/02 02:05:14;;;;;;;7.95;2.53;;;;;;;;;;5940260;28;20491;-72
2023/09/02 02:08:12;;;;;;;3.05;1.98;;;;;;;;;;5923695;28;20040;-73
2023/09/02 02:11:04;;;;;;;3.20;2.00;;;;;;;;;;5958108;28;20054;-74
2023/09/02 02:14:03;;;;;;;4.38;1.65;;;;;;;;;;5958600;28;20047;-72
2023/09/02 02:16:54;;;;;;;2.90;2.15;;;;;;;;;;5936730;28;20044;-74
2023/09/02 02:19:45;;;;;;;1.95;1.63;;;;;;;;;;5953554;28;20043;-72
2023/09/02 02:22:36;;;;;;;2.25;1.83;;;;;;;;;;5939918;28;20114;-74
2023/09/02 02:25:26;;;;;;;6.25;2.13;;;;;;;;;;5957857;28;20051;-74
2023/09/02 02:28:18;;;;;;;2.45;1.70;;;;;;;;;;5957609;28;20044;-76
2023/09/02 02:31:09;;;;;;;2.72;1.85;;;;;;;;;;5957449;28;20059;-74
2023/09/02 02:33:59;;;;;;;3.40;2.15;;;;;;;;;;5958184;28;20375;-75
2023/09/02 02:36:50;;;;;;;4.80;2.50;;;;;;;;;;5954641;28;20474;-77
2023/09/02 02:39:41;;;;;;;1.83;1.40;;;;;;;;;;5952836;28;20042;-76
2023/09/02 02:42:32;;;;;;;3.25;2.28;;;;;;;;;;5937293;28;20043;-76
2023/09/02 02:45:22;;;;;;;6.93;2.55;;;;;;;;;;5954531;28;20044;-76
2023/09/02 02:48:15;;;;;;;4.40;2.50;;;;;;;;;;5957432;28;20047;-74
2023/09/02 02:51:06;;;;;;;3.33;2.13;;;;;;;;;;5957279;28;20047;-76
2023/09/02 02:53:57;;;;;;;2.55;2.35;;;;;;;;;;5957524;28;20055;-76
2023/09/02 02:56:48;;;;;;;4.57;2.63;;;;;;;;;;5954196;28;20055;-75
2023/09/02 02:59:38;;;;;;;2.38;1.98;;;;;;;;;;5951854;28;20050;-75
2023/09/02 03:02:29;;;;;;;2.58;1.73;;;;;;;;;;5957208;28;20036;-76
2023/09/02 03:05:21;;;;;;;4.68;2.25;;;;;;;;;;5961895;28;20046;-76
2023/09/02 03:08:12;;;;;;;2.20;1.98;;;;;;;;;;5961772;28;20076;-76
2023/09/02 03:11:07;;;;;;;3.08;2.00;;;;;;;;;;5961762;28;20051;-75
2023/09/02 03:13:59;;;;;;;5.68;2.58;;;;;;;;;;5961990;28;20048;-75
2023/09/02 03:16:49;;;;;;;9.35;2.72;;;;;;;;;;5958536;28;20046;-76
2023/09/02 03:19:44;;;;;;;10.57;2.53;;;;;;;;;;5956483;28;20485;-74
2023/09/02 03:22:35;;;;;;;3.90;3.22;;;;;;;;;;5961422;28;20066;-76
2023/09/02 03:25:27;;;;;;;1.45;1.35;;;;;;;;;;5961462;28;20051;-76
2023/09/02 03:28:18;;;;;;;2.15;1.90;;;;;;;;;;5961486;28;20047;-74
2023/09/02 03:31:10;;;;;;;3.88;2.15;;;;;;;;;;5960995;28;20181;-74
2023/09/02 03:34:01;;;;;;;6.75;3.20;;;;;;;;;;5961338;28;20047;-76
2023/09/02 03:36:51;;;;;;;7.45;2.90;;;;;;;;;;5958175;28;20157;-74
2023/09/02 03:39:42;;;;;;;4.95;2.30;;;;;;;;;;5956567;28;20044;-76
2023/09/02 03:42:33;;;;;;;3.08;1.98;;;;;;;;;;5961025;28;20045;-77
2023/09/02 03:45:24;;;;;;;3.55;2.10;;;;;;;;;;5961246;28;20118;-74
2023/09/02 03:48:18;;;;;;;5.38;2.33;;;;;;;;;;5943107;28;20379;-76
2023/09/02 03:51:12;;;;;;;5.00;2.50;;;;;;;;;;5960917;28;20042;-76
2023/09/02 03:54:04;;;;;;;1.55;1.45;;;;;;;;;;5943160;28;20086;-76
2023/09/02 03:56:54;;;;;;;3.72;1.85;;;;;;;;;;5957695;28;20072;-76
2023/09/02 03:59:45;;;;;;;8.40;2.05;;;;;;;;;;5942722;28;20047;-75
2023/09/02 04:02:36;;;;;;;13.35;2.67;;;;;;;;;;5960714;28;20063;-75
2023/09/02 04:05:26;;;;;;;2.83;1.98;;;;;;;;;;5961013;28;20069;-75
2023/09/02 04:08:23;;;;;;;1.90;1.67;;;;;;;;;;5943028;28;20051;-76
2023/09/02 04:11:13;;;;;;;2.80;1.55;;;;;;;;;;5960958;28;20070;-75
2023/09/02 04:14:04;;;;;;;7.68;2.20;;;;;;;;;;5941939;28;20566;-75
2023/09/02 04:16:55;;;;;;;2.08;1.55;;;;;;;;;;5956957;28;20507;-74
2023/09/02 04:19:46;;;;;;;1.95;1.35;;;;;;;;;;5951604;28;20040;-74
2023/09/02 04:22:36;;;;;;;1.77;0.80;;;;;;;;;;5944450;28;20039;-75
2023/09/02 04:25:27;;;;;;;0.88;0.85;;;;;;;;;;5948016;28;20155;-74
2023/09/02 04:28:18;;;;;;;4.00;1.00;;;;;;;;;;5933880;28;20083;-74
2023/09/02 04:31:09;;;;;;;2.15;0.90;;;;;;;;;;5936022;28;20391;-74
2023/09/02 04:34:00;;;;;;;1.00;0.98;;;;;;;;;;5932922;28;20039;-76
2023/09/02 04:36:51;;;;;;;1.88;1.30;;;;;;;;;;5956032;28;20044;-75
2023/09/02 04:39:41;;;;;;;2.08;1.33;;;;;;;;;;5935810;28;20131;-75
2023/09/02 04:42:32;;;;;;;1.92;1.70;;;;;;;;;;5941220;28;20457;-74
2023/09/02 04:45:24;;;;;;;2.33;1.08;;;;;;;;;;5959041;28;20118;-74
2023/09/02 04:48:15;;;;;;;8.55;1.80;;;;;;;;;;5950197;28;20055;-73
2023/09/02 04:51:07;;;;;;;1.60;1.40;;;;;;;;;;5957284;28;20052;-74
2023/09/02 04:53:58;;;;;;;2.80;1.23;;;;;;;;;;5956603;28;20486;-74
2023/09/02 04:56:49;;;;;;;2.55;1.65;;;;;;;;;;5926991;28;20524;-73
2023/09/02 04:59:40;;;;;;;6.75;1.20;;;;;;;;;;5932674;28;20107;-74
2023/09/02 05:02:30;;;;;;;0.80;0.80;;;;;;;;;;5915128;28;20467;-73
2023/09/02 05:05:23;;;;;;;2.30;1.30;;;;;;;;;;5933699;28;20497;-74
2023/09/02 05:08:14;;;;;;;2.45;1.23;;;;;;;;;;5941323;28;20081;-73
2023/09/02 05:11:07;;;;;;;2.92;1.48;;;;;;;;;;5958727;28;20100;-73
2023/09/02 05:13:58;;;;;;;4.82;2.10;;;;;;;;;;5955782;28;20423;-72
2023/09/02 05:16:48;;;;;;;1.20;1.00;;;;;;;;;;5951129;28;20121;-75
2023/09/02 05:19:39;;;;;;;1.20;1.10;;;;;;;;;;5953875;28;20054;-72
2023/09/02 05:22:30;;;;;;;1.20;0.80;;;;;;;;;;5953304;28;20040;-73
2023/09/02 05:25:20;;;;;;;2.25;1.92;;;;;;;;;;5950890;28;20680;-74
2023/09/02 05:28:11;;;;;;;1.83;1.58;;;;;;;;;;5953198;28;20475;-72
2023/09/02 05:31:02;;;;;;;5.97;1.40;;;;;;;;;;5936622;28;20036;-72
2023/09/02 05:33:53;;;;;;;2.30;1.50;;;;;;;;;;5949840;28;20047;-73
2023/09/02 05:36:43;;;;;;;3.58;2.38;;;;;;;;;;5953168;28;20120;-74
2023/09/02 05:39:34;;;;;;;2.10;1.75;;;;;;;;;;5956739;28;20124;-73
2023/09/02 05:42:25;;;;;;;4.47;1.95;;;;;;;;;;5937307;28;20078;-72
2023/09/02 05:45:16;;;;;;;1.50;1.40;;;;;;;;;;5955355;28;20382;-73
2023/09/02 05:48:07;;;;;;;2.10;1.75;;;;;;;;;;5954886;28;20047;-73
2023/09/02 05:50:58;;;;;;;2.88;2.25;;;;;;;;;;5955739;28;20459;-74
2023/09/02 05:53:49;;;;;;;8.55;2.83;;;;;;;;;;5955470;28;20557;-73
2023/09/02 05:56:40;;;;;;;3.40;2.17;;;;;;;;;;5950678;28;20098;-73
2023/09/02 05:59:30;;;;;;;1.50;1.40;;;;;;;;;;5934938;28;20123;-73
2023/09/02 06:02:21;;;;;;;2.63;1.83;;;;;;;;;;5933712;28;20503;-74
2023/09/02 06:05:12;;;;;;;3.05;1.95;;;;;;;;;;5933857;28;20483;-72
2023/09/02 06:08:03;;;;;;;1.80;1.45;;;;;;;;;;5925651;28;20177;-73
2023/09/02 06:10:58;;;;;;;2.83;2.10;;;;;;;;;;5957829;28;20053;-73
2023/09/02 06:13:49;;;;;;;1.48;1.00;;;;;;;;;;5937664;28;20099;-73
2023/09/02 06:16:40;;;;;;;2.15;1.30;;;;;;;;;;5957097;28;20470;-72
2023/09/02 06:19:31;;;;;;;1.85;1.05;;;;;;;;;;5956521;28;20049;-73
2023/09/02 06:22:21;;;;;;;2.67;1.30;;;;;;;;;;5939603;28;20054;-73
2023/09/02 06:25:13;;;;;;;3.28;1.17;;;;;;;;;;5957820;28;20048;-72
2023/09/02 06:28:04;;;;;;;1.58;1.48;;;;;;;;;;5956496;28;20070;-72
2023/09/02 06:30:55;;;;;;;1.65;1.27;;;;;;;;;;5958079;28;20126;-73
2023/09/02 06:33:46;;;;;;;1.80;1.08;;;;;;;;;;5957539;28;20401;-72
2023/09/02 06:36:36;;;;;;;1.80;1.27;;;;;;;;;;5957277;28;20382;-74
2023/09/02 06:39:27;;;;;;;0.57;0.57;;;;;;;;;;5960339;28;20141;-73
2023/09/02 06:42:18;;;;;;;1.30;0.80;;;;;;;;;;5962575;28;20040;-72
2023/09/02 06:45:09;;;;;;;0.70;0.60;;;;;;;;;;5944643;28;20044;-73
2023/09/02 06:48:00;;;;;;;1.75;1.02;;;;;;;;;;5963261;28;20041;-73
2023/09/02 06:50:51;;;;;;;0.50;0.50;;;;;;;;;;5962671;28;20032;-72
2023/09/02 06:53:43;;;;;;;1.38;1.10;;;;;;;;;;5962534;28;20382;-73
2023/09/02 06:56:34;;;;;;;0.75;0.55;;;;;;;;;;5962357;28;20043;-72
2023/09/02 06:59:25;;;;;;;2.15;1.25;;;;;;;;;;5962118;28;20055;-73
2023/09/02 07:02:16;;;;;;;0.55;0.40;;;;;;;;;;5962293;28;20494;-73
2023/09/02 07:05:07;;;;;;;1.65;0.68;;;;;;;;;;5943947;28;20058;-72
2023/09/02 07:07:59;;;;;;;0.93;0.65;;;;;;;;;;5962619;28;20058;-72
2023/09/02 07:10:50;;;;;;;2.60;1.25;;;;;;;;;;5962267;28;20501;-73
2023/09/02 07:13:46;;;;;;;0.40;0.38;;;;;;;;;;5961902;28;20036;-73
2023/09/02 07:16:37;;;;;;;0.73;0.70;;;;;;;;;;5961774;28;20074;-73
2023/09/02 07:19:28;;;;;;;1.10;0.80;;;;;;;;;;5961864;28;20046;-73
2023/09/02 07:22:18;;;;;;;0.20;0.20;;;;;;;;;;5943481;28;20046;-73
2023/09/02 07:25:09;;;;;;;0.30;0.30;;;;;;;;;;5961795;28;20055;-72
2023/09/02 07:28:00;;;;;;;0.77;0.40;;;;;;;;;;5962282;28;20059;-73
2023/09/02 07:30:50;;;;;;;1.45;0.93;;;;;;;;;;5961740;28;20038;-72
2023/09/02 07:33:41;;;;;;;0.55;0.55;;;;;;;;;;5943418;28;20117;-71
2023/09/02 07:36:32;;;;;;;0.40;0.35;;;;;;;;;;5961580;28;20599;-72
2023/09/02 07:39:23;;;;;;;1.27;0.68;;;;;;;;;;5961454;28;20043;-72
2023/09/02 07:42:13;;;;;;;0.40;0.40;;;;;;;;;;5961338;28;20048;-72
2023/09/02 07:45:05;;;;;;;1.67;1.30;;;;;;;;;;5961538;28;20509;-72
2023/09/02 07:47:55;;;;;;;0.30;0.30;;;;;;;;;;5961724;28;20050;-72
2023/09/02 07:50:46;;;;;;;0.38;0.32;;;;;;;;;;5961307;28;20074;-72
2023/09/02 07:53:37;;;;;;;0.50;0.50;;;;;;;;;;5943064;28;20036;-72
2023/09/02 07:56:28;;;;;;;1.83;0.95;;;;;;;;;;5961325;28;20050;-72
2023/09/02 07:59:18;;;;;;;0.63;0.55;;;;;;;;;;5961273;28;20048;-73
2023/09/02 08:02:09;;;;;;;0.38;0.38;;;;;;;;;;5961131;28;20157;-73
2023/09/02 08:05:00;;;;;;;1.35;0.75;;;;;;;;;;5961521;28;20498;-71
2023/09/02 08:07:51;;;;;;;0.25;0.15;;;;;;;;;;5961039;28;20051;-72
2023/09/02 08:10:42;;;;;;;0.60;0.40;;;;;;;;;;5960950;28;20050;-72
2023/09/02 08:13:33;;;;;;;0.40;0.40;;;;;;;;;;5960694;28;20048;-72
2023/09/02 08:16:24;;;;;;;0.65;0.43;;;;;;;;;;5960767;28;20050;-73
2023/09/02 08:19:15;;;;;;;0.98;0.50;;;;;;;;;;5942701;28;20138;-73
2023/09/02 08:22:06;;;;;;;1.65;0.73;;;;;;;;;;5960585;28;20059;-72
2023/09/02 08:24:56;;;;;;;2.42;0.32;;;;;;;;;;5943176;28;20044;-72
2023/09/02 08:27:47;;;;;;;0.20;0.20;;;;;;;;;;5960572;28;20486;-71
2023/09/02 08:30:42;;;;;;;0.10;0.10;;;;;;;;;;5959043;28;20043;-72
2023/09/02 08:33:35;;;;;;;0.17;0.17;;;;;;;;;;5942472;28;20429;-71
2023/09/02 08:36:26;;;;;;;0.10;0.10;;;;;;;;;;5941992;28;20081;-71
2023/09/02 08:39:20;;;;;;;3.03;0.40;;;;;;;;;;5952431;28;20046;-71
2023/09/02 08:42:14;;;;;;;0.30;0.20;;;;;;;;;;5960215;28;20054;-72
2023/09/02 08:45:12;;;;;;;0.85;0.73;;;;;;;;;;5942704;28;20055;-72
2023/09/02 08:48:08;;;;;;;1.00;0.50;;;;;;;;;;5926057;28;20055;-72
2023/09/02 08:50:59;;;;;;;0.22;0.20;;;;;;;;;;5960801;28;20050;-72
2023/09/02 08:53:53;;;;;;;0.28;0.15;;;;;;;;;;5960280;28;20062;-72
2023/09/02 08:56:45;;;;;;;0.52;0.22;;;;;;;;;;5937881;28;20036;-73
2023/09/02 08:59:36;;;;;;;0.60;0.45;;;;;;;;;;5958718;28;20036;-72
2023/09/02 09:02:28;;;;;;;0.20;0.20;;;;;;;;;;5959320;28;20463;-73
2023/09/02 09:05:19;;;;;;;0.47;0.47;;;;;;;;;;5941629;28;20044;-73
2023/09/02 09:08:10;;;;;;;0.73;0.22;;;;;;;;;;5959686;28;20399;-71
2023/09/02 09:11:04;;;;;;;0.15;0.15;;;;;;;;;;5941614;28;20414;-73
2023/09/02 09:13:58;;;;;;;3.40;0.28;;;;;;;;;;5942289;28;20043;-71
2023/09/02 09:16:53;;;;;;;0.68;0.32;;;;;;;;;;5937670;28;20527;-71
2023/09/02 09:19:44;;;;;;;0.10;0.10;;;;;;;;;;5941572;28;20445;-71
2023/09/02 09:22:41;;;;;;;0.82;0.40;;;;;;;;;;5941310;28;20042;-72
2023/09/02 09:25:32;;;;;;;0.40;0.30;;;;;;;;;;5941306;28;20628;-72
2023/09/02 09:28:22;;;;;;;0.93;0.57;;;;;;;;;;5940930;28;20047;-72
2023/09/02 09:31:17;;;;;;;0.25;0.20;;;;;;;;;;5958924;28;20054;-72
2023/09/02 09:34:09;;;;;;;0.98;0.40;;;;;;;;;;5957873;28;20036;-71
2023/09/02 09:37:00;;;;;;;0.55;0.32;;;;;;;;;;5959357;28;20044;-71
2023/09/02 09:39:52;;;;;;;0.40;0.40;;;;;;;;;;5957697;28;20040;-72
2023/09/02 09:42:43;;;;;;;1.70;0.85;;;;;;;;;;5958585;28;20035;-73
2023/09/02 09:45:49;;;;;;;0.95;0.57;;;;;;;;;;5958777;28;20106;-72
2023/09/02 09:48:48;;;;;;;0.30;0.30;;;;;;;;;;5957568;28;20043;-72
2023/09/02 09:51:38;;;;;;;0.38;0.38;;;;;;;;;;5952140;28;20498;-73
2023/09/02 09:54:45;;;;;;;0.22;0.22;;;;;;;;;;5958906;28;20036;-73
2023/09/02 09:57:37;;;;;;;1.27;0.40;;;;;;;;;;5941824;28;20519;-74
2023/09/02 10:00:29;;;;;;;0.80;0.60;;;;;;;;;;5958734;28;20419;-72
2023/09/02 10:03:30;;;;;;;1.15;0.80;;;;;;;;;;5957414;28;22498;-71
2023/09/02 10:06:21;;;;;;;0.93;0.70;;;;;;;;;;5957308;28;20047;-73
2023/09/02 10:09:12;;;;;;;0.70;0.45;;;;;;;;;;5958280;28;20528;-72
2023/09/02 10:12:18;;;;;;;0.40;0.40;;;;;;;;;;5957909;28;20050;-72
2023/09/02 10:15:09;;;;;;;0.45;0.40;;;;;;;;;;5940424;28;20070;-72
2023/09/02 10:18:04;;;;;;;2.53;0.63;;;;;;;;;;5958775;28;20126;-74
2023/09/02 10:20:55;;;;;;;0.60;0.60;;;;;;;;;;5940302;28;20040;-73
2023/09/02 10:23:54;;;;;;;1.08;0.65;;;;;;;;;;5958325;28;20036;-73
2023/09/02 10:26:52;;;;;;;0.20;0.20;;;;;;;;;;5958144;28;20043;-73
2023/09/02 10:29:46;;;;;;;2.50;0.93;;;;;;;;;;5940590;28;20054;-73
2023/09/02 10:32:41;;;;;;;0.73;0.68;;;;;;;;;;5940252;28;20040;-73
2023/09/02 10:35:34;;;;;;;0.35;0.15;;;;;;;;;;5958022;28;20050;-74
2023/09/02 10:38:33;;;;;;;0.45;0.45;;;;;;;;;;5940268;28;20050;-72
2023/09/02 10:41:25;;;;;;;1.33;0.40;;;;;;;;;;5940085;28;20122;-73
2023/09/02 10:44:17;;;;;;;0.68;0.55;;;;;;;;;;5957786;28;20050;-73
2023/09/02 10:47:08;;;;;;;0.15;0.15;;;;;;;;;;5938729;28;20054;-73
2023/09/02 10:49:59;;;;;;;0.57;0.38;;;;;;;;;;5939940;28;20052;-72
2023/09/02 10:52:50;;;;;;;1.33;0.43;;;;;;;;;;5940405;28;20114;-73
2023/09/02 10:56:02;;;;;;;0.38;0.30;;;;;;;;;;5957310;28;20364;-73
2023/09/02 10:58:54;;;;;;;1.10;0.20;;;;;;;;;;5956983;28;20059;-73
2023/09/02 11:01:47;;;;;;;0.52;0.20;;;;;;;;;;5952209;28;20040;-73
2023/09/02 11:04:41;;;;;;;0.00;0.00;;;;;;;;;;5957695;28;20044;-73
2023/09/02 11:07:35;;;;;;;0.47;0.32;;;;;;;;;;5957460;28;20039;-73
2023/09/02 11:10:54;;;;;;;0.80;0.60;;;;;;;;;;5957604;28;20047;-72
2023/09/02 11:14:06;;;;;;;0.20;0.20;;;;;;;;;;5939713;28;20039;-74
2023/09/02 11:17:29;;;;;;;0.10;0.10;;;;;;;;;;5957332;28;20040;-74
2023/09/02 11:20:25;;;;;;;0.28;0.22;;;;;;;;;;5939225;28;20051;-73
2023/09/02 11:23:21;;;;;;;0.00;0.00;;;;;;;;;;5957449;28;20070;-72
2023/09/02 11:26:16;;;;;;;0.30;0.30;;;;;;;;;;5961842;28;20040;-74
2023/09/02 11:29:27;;;;;;;0.20;0.13;;;;;;;;;;5944158;28;20053;-73
2023/09/02 11:32:18;;;;;;;0.40;0.32;;;;;;;;;;5961693;28;20424;-74
2023/09/02 11:35:15;;;;;;;0.55;0.45;;;;;;;;;;5943440;28;20058;-73
2023/09/02 11:38:21;;;;;;;0.10;0.10;;;;;;;;;;5944649;28;20048;-73
2023/09/02 11:41:22;;;;;;;0.10;0.10;;;;;;;;;;5961411;28;20039;-73
2023/09/02 11:44:17;;;;;;;0.20;0.10;;;;;;;;;;5961184;28;20044;-72
2023/09/02 11:47:08;;;;;;;0.10;0.10;;;;;;;;;;5961256;28;20101;-71
2023/09/02 11:49:59;;;;;;;2.75;0.65;;;;;;;;;;5961734;28;20513;-73
2023/09/02 11:52:54;;;;;;;0.22;0.22;;;;;;;;;;5961340;28;20039;-72
2023/09/02 11:55:44;;;;;;;1.00;0.50;;;;;;;;;;5960821;28;20450;-73
2023/09/02 11:58:35;;;;;;;0.43;0.43;;;;;;;;;;5949709;28;20044;-72
2023/09/02 12:01:26;;;;;;;0.32;0.32;;;;;;;;;;5924786;28;20509;-73
2023/09/02 12:04:16;;;;;;;0.45;0.40;;;;;;;;;;5952070;28;20493;-73
2023/09/02 12:07:09;;;;;;;0.63;0.50;;;;;;;;;;5960559;28;20044;-75
2023/09/02 12:10:12;;;;;;;0.28;0.28;;;;;;;;;;5955667;28;20134;-71
2023/09/02 12:13:03;;;;;;;0.30;0.30;;;;;;;;;;5958280;28;20040;-71
2023/09/02 12:15:54;;;;;;;0.55;0.45;;;;;;;;;;5936949;28;20123;-72
2023/09/02 12:18:45;;;;;;;1.83;0.98;;;;;;;;;;5933330;28;20040;-72
2023/09/02 12:21:36;;;;;;;0.70;0.70;;;;;;;;;;5930408;28;20032;-72
2023/09/02 12:24:29;;;;;;;0.40;0.40;;;;;;;;;;5926429;28;20383;-70
2023/09/02 12:27:20;;;;;;;0.75;0.40;;;;;;;;;;5941872;28;20043;-71
2023/09/02 12:30:12;;;;;;;0.35;0.28;;;;;;;;;;5939016;28;20402;-70
2023/09/02 12:33:05;;;;;;;0.82;0.52;;;;;;;;;;5957806;28;20050;-71
2023/09/02 12:35:56;;;;;;;0.93;0.43;;;;;;;;;;5941357;28;20112;-71
2023/09/02 12:38:51;;;;;;;0.50;0.40;;;;;;;;;;5932699;28;20159;-72
2023/09/02 12:41:42;;;;;;;0.70;0.43;;;;;;;;;;5930827;28;20047;-71
2023/09/02 12:44:33;;;;;;;1.05;0.80;;;;;;;;;;5926601;28;20409;-72
2023/09/02 12:47:25;;;;;;;4.68;1.00;;;;;;;;;;5959630;28;20044;-72
2023/09/02 12:50:22;;;;;;;0.15;0.15;;;;;;;;;;5956631;28;20628;-72
2023/09/02 12:53:13;;;;;;;0.30;0.30;;;;;;;;;;5939660;28;20044;-73
2023/09/02 12:56:04;;;;;;;0.47;0.43;;;;;;;;;;5935581;28;20145;-71
2023/09/02 12:58:59;;;;;;;0.17;0.17;;;;;;;;;;5931130;28;20620;-72
2023/09/02 13:01:50;;;;;;;1.13;0.60;;;;;;;;;;5946802;28;20338;-71
2023/09/02 13:04:41;;;;;;;2.50;1.27;;;;;;;;;;5943912;28;20067;-73
2023/09/02 13:07:33;;;;;;;1.83;0.82;;;;;;;;;;5932848;28;20046;-71
2023/09/02 13:10:24;;;;;;;2.05;1.25;;;;;;;;;;5933846;28;20122;-72
2023/09/02 13:13:16;;;;;;;1.55;0.65;;;;;;;;;;5956529;28;20058;-73
2023/09/02 13:16:07;;;;;;;1.33;0.90;;;;;;;;;;5940425;28;20212;-73
2023/09/02 13:18:58;;;;;;;0.55;0.55;;;;;;;;;;5958893;28;20144;-74
2023/09/02 13:21:49;;;;;;;1.65;1.05;;;;;;;;;;5955589;28;20123;-73
2023/09/02 13:24:44;;;;;;;1.30;0.70;;;;;;;;;;5956912;28;20043;-73
2023/09/02 13:27:35;;;;;;;4.10;0.68;;;;;;;;;;5941135;28;20043;-74
2023/09/02 13:30:26;;;;;;;0.55;0.28;;;;;;;;;;5937640;28;20125;-75
2023/09/02 13:33:17;;;;;;;0.50;0.50;;;;;;;;;;5931857;28;20044;-75
2023/09/02 13:36:09;;;;;;;0.70;0.40;;;;;;;;;;5922523;28;20051;-76
2023/09/02 13:38:59;;;;;;;0.98;0.57;;;;;;;;;;5934570;28;20159;-73
2023/09/02 13:41:50;;;;;;;0.40;0.40;;;;;;;;;;5916588;28;20043;-74
2023/09/02 13:44:42;;;;;;;0.20;0.20;;;;;;;;;;5940902;28;20040;-74
2023/09/02 13:47:33;;;;;;;2.50;1.02;;;;;;;;;;5953012;28;20366;-75
2023/09/02 13:50:24;;;;;;;1.05;0.40;;;;;;;;;;5939911;28;20112;-76
2023/09/02 13:53:17;;;;;;;0.63;0.30;;;;;;;;;;5958083;28;20043;-75
2023/09/02 13:56:11;;;;;;;0.50;0.50;;;;;;;;;;5955330;28;20498;-73
2023/09/02 13:59:02;;;;;;;0.30;0.30;;;;;;;;;;5935330;28;20062;-74
2023/09/02 14:01:53;;;;;;;1.92;0.45;;;;;;;;;;5958100;28;20040;-75
2023/09/02 14:04:46;;;;;;;0.35;0.30;;;;;;;;;;5939638;28;20508;-74
2023/09/02 14:07:40;;;;;;;0.30;0.30;;;;;;;;;;5957381;28;20474;-74
2023/09/02 14:10:31;;;;;;;0.63;0.50;;;;;;;;;;5939740;28;20402;-74
2023/09/02 14:13:21;;;;;;;1.27;0.63;;;;;;;;;;5929776;28;20425;-74
2023/09/02 14:16:12;;;;;;;1.30;0.20;;;;;;;;;;5950689;28;20092;-73
2023/09/02 14:19:03;;;;;;;0.20;0.20;;;;;;;;;;5937157;28;20039;-74
2023/09/02 14:21:54;;;;;;;0.28;0.28;;;;;;;;;;5934291;28;20809;-74
2023/09/02 14:24:44;;;;;;;0.75;0.57;;;;;;;;;;5957681;27;20044;-75
2023/09/02 14:27:36;;;;;;;0.65;0.38;;;;;;;;;;5944421;28;20486;-74
2023/09/02 14:30:27;;;;;;;4.90;0.88;;;;;;;;;;5947698;28;20043;-74
2023/09/02 14:33:17;;;;;;;0.75;0.60;;;;;;;;;;5933586;28;20584;-75
2023/09/02 14:36:08;;;;;;;0.28;0.28;;;;;;;;;;5933485;28;20048;-73
2023/09/02 14:38:59;;;;;;;1.17;0.70;;;;;;;;;;5952818;28;20129;-74
2023/09/02 14:41:50;;;;;;;0.82;0.60;;;;;;;;;;5953725;28;20051;-75
2023/09/02 14:44:41;;;;;;;0.25;0.25;;;;;;;;;;5956357;28;20048;-75
2023/09/02 14:47:32;;;;;;;0.93;0.55;;;;;;;;;;5956715;28;20051;-75
2023/09/02 14:50:27;;;;;;;0.30;0.25;;;;;;;;;;5943193;28;20123;-73
2023/09/02 14:53:18;;;;;;;0.28;0.28;;;;;;;;;;5951530;28;20047;-73
2023/09/02 14:56:12;;;;;;;1.73;0.50;;;;;;;;;;5960137;28;20454;-72
2023/09/02 14:59:03;;;;;;;0.70;0.38;;;;;;;;;;5950737;28;20044;-72
2023/09/02 15:01:55;;;;;;;0.77;0.70;;;;;;;;;;5959249;28;20050;-72
2023/09/02 15:04:45;;;;;;;0.20;0.20;;;;;;;;;;5945764;27;20047;-72
2023/09/02 15:07:38;;;;;;;0.60;0.30;;;;;;;;;;5966894;27;20032;-73
2023/09/02 15:10:29;;;;;;;1.08;0.73;;;;;;;;;;5960096;28;20169;-72
2023/09/02 15:13:20;;;;;;;0.80;0.30;;;;;;;;;;5961879;28;20051;-72
2023/09/02 15:16:14;;;;;;;3.45;1.40;;;;;;;;;;5963942;27;20078;-72
2023/09/02 15:19:05;;;;;;;2.35;0.68;;;;;;;;;;5969148;27;20055;-71
2023/09/02 15:22:01;;;;;;;0.77;0.60;;;;;;;;;;5953118;27;20042;-71
2023/09/02 15:24:52;;;;;;;1.75;0.68;;;;;;;;;;5944974;27;20040;-72
2023/09/02 15:27:42;;;;;;;0.45;0.45;;;;;;;;;;5953300;27;20040;-73
2023/09/02 15:30:33;;;;;;;0.80;0.50;;;;;;;;;;5947367;27;20070;-72
2023/09/02 15:33:26;;;;;;;0.63;0.52;;;;;;;;;;5963816;27;20050;-75
2023/09/02 15:36:21;;;;;;;0.45;0.40;;;;;;;;;;5964614;27;20043;-71
2023/09/02 15:39:27;;;;;;;1.48;0.65;;;;;;;;;;5950155;28;20683;-72
2023/09/02 15:42:21;;;;;;;0.80;0.75;;;;;;;;;;5949958;28;20040;-72
2023/09/02 15:45:12;;;;;;;0.68;0.50;;;;;;;;;;5947560;28;20509;-71
2023/09/02 15:48:03;;;;;;;0.88;0.52;;;;;;;;;;5952527;27;20040;-72
2023/09/02 15:50:54;;;;;;;2.30;0.93;;;;;;;;;;5919055;27;20067;-72
2023/09/02 15:53:46;;;;;;;2.13;0.57;;;;;;;;;;5968076;27;20047;-71
2023/09/02 15:56:37;;;;;;;2.72;0.77;;;;;;;;;;5962736;27;20599;-73
2023/09/02 15:59:28;;;;;;;0.50;0.50;;;;;;;;;;5960292;27;20060;-72
2023/09/02 16:02:21;;;;;;;1.30;1.10;;;;;;;;;;5963578;27;20378;-71
2023/09/02 16:05:13;;;;;;;1.95;0.45;;;;;;;;;;5960162;28;20458;-72
2023/09/02 16:08:04;;;;;;;0.60;0.60;;;;;;;;;;5935370;28;20049;-73
2023/09/02 16:10:55;;;;;;;5.22;0.95;;;;;;;;;;5953043;28;20046;-75
2023/09/02 16:13:46;;;;;;;1.23;0.70;;;;;;;;;;5960293;28;20047;-73
2023/09/02 16:16:37;;;;;;;0.85;0.60;;;;;;;;;;5935520;28;20044;-72
2023/09/02 16:19:28;;;;;;;1.50;0.88;;;;;;;;;;5958592;27;20043;-73
2023/09/02 16:22:18;;;;;;;3.90;1.35;;;;;;;;;;5966081;27;20036;-72
2023/09/02 16:25:10;;;;;;;0.93;0.82;;;;;;;;;;5962656;27;20521;-72
2023/09/02 16:28:02;;;;;;;2.60;1.05;;;;;;;;;;5960489;27;20055;-73
2023/09/02 16:30:52;;;;;;;0.88;0.82;;;;;;;;;;5968548;27;20051;-74
2023/09/02 16:33:43;;;;;;;6.03;1.80;;;;;;;;;;5942439;28;20114;-72
2023/09/02 16:36:34;;;;;;;1.02;0.70;;;;;;;;;;5948873;27;20054;-74
2023/09/02 16:39:25;;;;;;;1.73;1.25;;;;;;;;;;5963146;27;20049;-75
2023/09/02 16:42:16;;;;;;;1.65;1.05;;;;;;;;;;5917302;28;20044;-73
2023/09/02 16:45:09;;;;;;;1.15;0.60;;;;;;;;;;5960961;27;20040;-72
2023/09/02 16:48:06;;;;;;;2.05;1.10;;;;;;;;;;5965329;27;20043;-74
2023/09/02 16:50:59;;;;;;;1.27;1.17;;;;;;;;;;5959515;27;20039;-73
2023/09/02 16:53:50;;;;;;;1.42;0.77;;;;;;;;;;5958359;27;20381;-72
2023/09/02 16:56:42;;;;;;;2.08;1.00;;;;;;;;;;5938563;27;20510;-74
2023/09/02 16:59:33;;;;;;;2.22;1.48;;;;;;;;;;5963046;27;20051;-73
2023/09/02 17:02:27;;;;;;;1.75;1.10;;;;;;;;;;5961936;27;20051;-72
2023/09/02 17:05:24;;;;;;;1.88;0.80;;;;;;;;;;5942704;28;20040;-73
2023/09/02 17:08:21;;;;;;;1.95;1.45;;;;;;;;;;5961608;27;20043;-72
2023/09/02 17:11:12;;;;;;;1.70;1.55;;;;;;;;;;5944567;28;20044;-72
2023/09/02 17:14:05;;;;;;;3.17;1.80;;;;;;;;;;5956041;28;20054;-72